FFT4401 KLAS-KSFO
Flight info
| Callsign | FFT4401 |
|---|---|
| Flight time | 1h 4m |
| Altitude | 26000 |
| Route | JOHKR5 KENNO RUSME DYAMD5 |
| Aircraft | A20N/M-SDE2E3FGHIRWXY/LB1 |
Departure
| Time | 2026-05-04 05:25 |
|---|---|
| Airport | Harry Reid International Airport (KLAS) |
Arrival
| Time | 2026-05-04 06:30 |
|---|---|
| Airport | San Francisco International Airport (KSFO) |
| Time | Latitude | Longitude | Altitude | Speed | Heading |
|---|---|---|---|---|---|
| 2026-05-04 04:52 | 36.08536 | -115.13794 | 2058 ft | 0 kts | 0° |
| 2026-05-04 05:10 | 36.08527 | -115.13794 | 2058 ft | 2 kts | 0° |
| 2026-05-04 05:10 | 36.08512 | -115.13794 | 2058 ft | 2 kts | 0° |
| 2026-05-04 05:10 | 36.08497 | -115.13795 | 2058 ft | 2 kts | 0° |
| 2026-05-04 05:11 | 36.08482 | -115.13796 | 2059 ft | 2 kts | 26° |
| 2026-05-04 05:11 | 36.08470 | -115.13807 | 2059 ft | 2 kts | 55° |
| 2026-05-04 05:11 | 36.08465 | -115.13824 | 2060 ft | 2 kts | 87° |
| 2026-05-04 05:11 | 36.08466 | -115.13841 | 2060 ft | 0 kts | 92° |
| 2026-05-04 05:12 | 36.08466 | -115.13843 | 2060 ft | 0 kts | 90° |
| 2026-05-04 05:15 | 36.08466 | -115.13842 | 2060 ft | 0 kts | 90° |
| 2026-05-04 05:15 | 36.08466 | -115.13806 | 2059 ft | 7 kts | 90° |
| 2026-05-04 05:15 | 36.08466 | -115.13708 | 2057 ft | 14 kts | 90° |
| 2026-05-04 05:15 | 36.08466 | -115.13565 | 2052 ft | 18 kts | 90° |
| 2026-05-04 05:16 | 36.08435 | -115.13416 | 2049 ft | 17 kts | 133° |
| 2026-05-04 05:16 | 36.08323 | -115.13376 | 2050 ft | 16 kts | 181° |
| 2026-05-04 05:16 | 36.08212 | -115.13376 | 2052 ft | 14 kts | 180° |
| 2026-05-04 05:16 | 36.08117 | -115.13376 | 2055 ft | 12 kts | 180° |
| 2026-05-04 05:17 | 36.08026 | -115.13376 | 2057 ft | 12 kts | 181° |
| 2026-05-04 05:17 | 36.07930 | -115.13377 | 2059 ft | 14 kts | 180° |
| 2026-05-04 05:17 | 36.07825 | -115.13374 | 2061 ft | 14 kts | 179° |
| 2026-05-04 05:17 | 36.07755 | -115.13310 | 2060 ft | 15 kts | 96° |
| 2026-05-04 05:18 | 36.07754 | -115.13158 | 2056 ft | 19 kts | 90° |
| 2026-05-04 05:18 | 36.07754 | -115.12974 | 2050 ft | 22 kts | 90° |
| 2026-05-04 05:18 | 36.07754 | -115.12766 | 2046 ft | 24 kts | 90° |
| 2026-05-04 05:18 | 36.07754 | -115.12541 | 2042 ft | 25 kts | 90° |
| 2026-05-04 05:19 | 36.07755 | -115.12316 | 2038 ft | 25 kts | 90° |
| 2026-05-04 05:19 | 36.07748 | -115.12155 | 2038 ft | 8 kts | 120° |
| 2026-05-04 05:19 | 36.07745 | -115.12150 | 2037 ft | 0 kts | 128° |
| 2026-05-04 05:23 | 36.07733 | -115.12135 | 2037 ft | 7 kts | 150° |
| 2026-05-04 05:24 | 36.07649 | -115.12147 | 2039 ft | 13 kts | 243° |
| 2026-05-04 05:24 | 36.07643 | -115.12219 | 2039 ft | 2 kts | 270° |
| 2026-05-04 05:24 | 36.07643 | -115.12242 | 2039 ft | 3 kts | 270° |
| 2026-05-04 05:24 | 36.07643 | -115.12487 | 2043 ft | 63 kts | 269° |
| 2026-05-04 05:25 | 36.07641 | -115.13335 | 2063 ft | 127 kts | 270° |
| 2026-05-04 05:25 | 36.07640 | -115.14659 | 2132 ft | 173 kts | 270° |
| 2026-05-04 05:25 | 36.07664 | -115.16162 | 2754 ft | 173 kts | 269° |
| 2026-05-04 05:25 | 36.07720 | -115.17657 | 3437 ft | 176 kts | 270° |
| 2026-05-04 05:26 | 36.07782 | -115.19210 | 4050 ft | 181 kts | 270° |
| 2026-05-04 05:26 | 36.07709 | -115.20856 | 4381 ft | 195 kts | 258° |
| 2026-05-04 05:26 | 36.07438 | -115.22622 | 4717 ft | 211 kts | 256° |
| 2026-05-04 05:26 | 36.07096 | -115.24394 | 4942 ft | 232 kts | 246° |
| 2026-05-04 05:27 | 36.06194 | -115.26012 | 5308 ft | 245 kts | 218° |
| 2026-05-04 05:28 | 35.94045 | -115.32797 | 10099 ft | 293 kts | 206° |
| 2026-05-04 05:29 | 35.92194 | -115.34010 | 10700 ft | 297 kts | 206° |
| 2026-05-04 05:29 | 35.90491 | -115.35169 | 10976 ft | 300 kts | 213° |
| 2026-05-04 05:29 | 35.89370 | -115.36434 | 11013 ft | 303 kts | 233° |
| 2026-05-04 05:29 | 35.88637 | -115.38216 | 11019 ft | 305 kts | 254° |
| 2026-05-04 05:31 | 35.88901 | -115.56894 | 11028 ft | 309 kts | 271° |
| 2026-05-04 05:31 | 35.88955 | -115.59686 | 11227 ft | 324 kts | 271° |
| 2026-05-04 05:32 | 35.89011 | -115.62601 | 11594 ft | 342 kts | 271° |
| 2026-05-04 05:32 | 35.89068 | -115.65599 | 12004 ft | 357 kts | 271° |
| 2026-05-04 05:32 | 35.89125 | -115.68645 | 12685 ft | 361 kts | 271° |
| 2026-05-04 05:33 | 35.89235 | -115.74550 | 14092 ft | 367 kts | 271° |
| 2026-05-04 05:33 | 35.89293 | -115.77827 | 14829 ft | 371 kts | 270° |
| 2026-05-04 05:33 | 35.89350 | -115.81129 | 15558 ft | 374 kts | 270° |
| 2026-05-04 05:33 | 35.89406 | -115.84455 | 16278 ft | 378 kts | 270° |
| 2026-05-04 05:34 | 35.89462 | -115.87814 | 16987 ft | 381 kts | 270° |
| 2026-05-04 05:34 | 35.89609 | -115.91151 | 17655 ft | 386 kts | 279° |
| 2026-05-04 05:34 | 35.90473 | -115.94400 | 18304 ft | 390 kts | 298° |
| 2026-05-04 05:34 | 35.92087 | -115.97123 | 18963 ft | 393 kts | 313° |
| 2026-05-04 05:35 | 35.94077 | -115.99611 | 19620 ft | 396 kts | 315° |
| 2026-05-04 05:35 | 35.96144 | -116.02093 | 20216 ft | 400 kts | 315° |
| 2026-05-04 05:35 | 35.98140 | -116.04497 | 20790 ft | 404 kts | 315° |
| 2026-05-04 05:35 | 36.00192 | -116.06992 | 21371 ft | 407 kts | 315° |
| 2026-05-04 05:36 | 36.02256 | -116.09521 | 21943 ft | 410 kts | 315° |
| 2026-05-04 05:36 | 36.04344 | -116.12092 | 22605 ft | 411 kts | 314° |
| 2026-05-04 05:36 | 36.06436 | -116.14676 | 23380 ft | 408 kts | 314° |
| 2026-05-04 05:36 | 36.08477 | -116.17202 | 24106 ft | 405 kts | 314° |
| 2026-05-04 05:37 | 36.10522 | -116.19737 | 24739 ft | 405 kts | 314° |
| 2026-05-04 05:37 | 36.12593 | -116.22306 | 25265 ft | 407 kts | 314° |
| 2026-05-04 05:37 | 36.14649 | -116.24860 | 25705 ft | 410 kts | 314° |
| 2026-05-04 05:38 | 36.18854 | -116.30091 | 25835 ft | 412 kts | 314° |
| 2026-05-04 05:38 | 36.20910 | -116.32652 | 25837 ft | 412 kts | 314° |
| 2026-05-04 05:38 | 36.23024 | -116.35287 | 25837 ft | 412 kts | 314° |
| 2026-05-04 05:38 | 36.25099 | -116.37876 | 25838 ft | 412 kts | 314° |
| 2026-05-04 05:39 | 36.27194 | -116.40490 | 25837 ft | 412 kts | 314° |
| 2026-05-04 05:39 | 36.31358 | -116.45541 | 25838 ft | 413 kts | 316° |
| 2026-05-04 05:39 | 36.33511 | -116.48085 | 25838 ft | 412 kts | 316° |
| 2026-05-04 05:40 | 36.37794 | -116.53163 | 25838 ft | 413 kts | 315° |
| 2026-05-04 05:40 | 36.39917 | -116.55690 | 25838 ft | 412 kts | 315° |
| 2026-05-04 05:40 | 36.42057 | -116.58243 | 25838 ft | 413 kts | 315° |
| 2026-05-04 05:41 | 36.44176 | -116.60773 | 25838 ft | 413 kts | 315° |
| 2026-05-04 05:41 | 36.46329 | -116.63276 | 25838 ft | 413 kts | 317° |
| 2026-05-04 05:41 | 36.48421 | -116.65643 | 25838 ft | 413 kts | 316° |
| 2026-05-04 05:41 | 36.50460 | -116.67942 | 25838 ft | 413 kts | 316° |
| 2026-05-04 05:42 | 36.52656 | -116.70427 | 25838 ft | 413 kts | 316° |
| 2026-05-04 05:42 | 36.54824 | -116.72890 | 25838 ft | 413 kts | 316° |
| 2026-05-04 05:42 | 36.57006 | -116.75375 | 25838 ft | 413 kts | 316° |
| 2026-05-04 05:42 | 36.59202 | -116.77877 | 25838 ft | 413 kts | 316° |
| 2026-05-04 05:43 | 36.61360 | -116.80340 | 25838 ft | 413 kts | 316° |
| 2026-05-04 05:43 | 36.63561 | -116.82852 | 25838 ft | 413 kts | 316° |
| 2026-05-04 05:43 | 36.65725 | -116.85325 | 25838 ft | 413 kts | 316° |
| 2026-05-04 05:45 | 36.82546 | -117.00219 | 25887 ft | 415 kts | 333° |
| 2026-05-04 05:45 | 36.85214 | -117.01930 | 25903 ft | 415 kts | 333° |
| 2026-05-04 05:47 | 37.03656 | -117.13902 | 26002 ft | 413 kts | 334° |
| 2026-05-04 05:47 | 37.06249 | -117.15595 | 26005 ft | 412 kts | 335° |
| 2026-05-04 05:47 | 37.08875 | -117.17310 | 26006 ft | 411 kts | 335° |
| 2026-05-04 05:48 | 37.11354 | -117.18930 | 26008 ft | 409 kts | 336° |
| 2026-05-04 05:48 | 37.13937 | -117.20616 | 26009 ft | 407 kts | 336° |
| 2026-05-04 05:48 | 37.16498 | -117.22286 | 26009 ft | 406 kts | 336° |
| 2026-05-04 05:48 | 37.19085 | -117.23977 | 26010 ft | 407 kts | 336° |
| 2026-05-04 05:49 | 37.21705 | -117.25693 | 26010 ft | 406 kts | 336° |
| 2026-05-04 05:49 | 37.24256 | -117.27367 | 26011 ft | 406 kts | 336° |
| 2026-05-04 05:49 | 37.26839 | -117.29069 | 26010 ft | 407 kts | 335° |
| 2026-05-04 05:49 | 37.29361 | -117.30952 | 26010 ft | 409 kts | 330° |
| 2026-05-04 05:51 | 37.45240 | -117.47510 | 25991 ft | 411 kts | 323° |
| 2026-05-04 05:51 | 37.47451 | -117.50028 | 25973 ft | 414 kts | 315° |
| 2026-05-04 05:52 | 37.49093 | -117.53140 | 25968 ft | 420 kts | 296° |
| 2026-05-04 05:52 | 37.49918 | -117.56760 | 25972 ft | 422 kts | 280° |
| 2026-05-04 05:52 | 37.50263 | -117.60534 | 25971 ft | 422 kts | 277° |
| 2026-05-04 05:52 | 37.50540 | -117.64351 | 25963 ft | 421 kts | 277° |
| 2026-05-04 05:53 | 37.50785 | -117.67748 | 25955 ft | 421 kts | 276° |
| 2026-05-04 05:54 | 37.52858 | -117.94051 | 25919 ft | 421 kts | 277° |
| 2026-05-04 05:55 | 37.53155 | -117.97768 | 25916 ft | 421 kts | 277° |
| 2026-05-04 05:55 | 37.53406 | -118.00926 | 25915 ft | 421 kts | 277° |
| 2026-05-04 05:56 | 37.54452 | -118.14211 | 25911 ft | 421 kts | 277° |
| 2026-05-04 05:56 | 37.54781 | -118.18426 | 25911 ft | 421 kts | 277° |
| 2026-05-04 05:56 | 37.55061 | -118.22027 | 25911 ft | 421 kts | 277° |
| 2026-05-04 05:57 | 37.55345 | -118.25700 | 25912 ft | 421 kts | 277° |
| 2026-05-04 05:57 | 37.55626 | -118.29356 | 25912 ft | 421 kts | 277° |
| 2026-05-04 05:57 | 37.55904 | -118.32986 | 25912 ft | 421 kts | 277° |
| 2026-05-04 05:57 | 37.56162 | -118.36354 | 25912 ft | 421 kts | 277° |
| 2026-05-04 05:58 | 37.56448 | -118.40114 | 25915 ft | 421 kts | 277° |
| 2026-05-04 05:58 | 37.56728 | -118.43812 | 25921 ft | 421 kts | 277° |
| 2026-05-04 05:58 | 37.57000 | -118.47413 | 25929 ft | 421 kts | 277° |
| 2026-05-04 05:58 | 37.57273 | -118.51063 | 25941 ft | 420 kts | 277° |
| 2026-05-04 05:59 | 37.57547 | -118.54729 | 25954 ft | 420 kts | 277° |
| 2026-05-04 05:59 | 37.57819 | -118.58369 | 25969 ft | 420 kts | 277° |
| 2026-05-04 05:59 | 37.58089 | -118.62014 | 25983 ft | 420 kts | 277° |
| 2026-05-04 05:59 | 37.58334 | -118.65324 | 25994 ft | 419 kts | 276° |
| 2026-05-04 06:00 | 37.58541 | -118.68150 | 26003 ft | 419 kts | 276° |
| 2026-05-04 06:00 | 37.59103 | -118.75829 | 26022 ft | 419 kts | 276° |
| 2026-05-04 06:00 | 37.59382 | -118.79655 | 26028 ft | 419 kts | 276° |
| 2026-05-04 06:01 | 37.59657 | -118.83452 | 26034 ft | 419 kts | 276° |
| 2026-05-04 06:01 | 37.59924 | -118.87171 | 26039 ft | 419 kts | 277° |
| 2026-05-04 06:03 | 37.61768 | -119.13222 | 26047 ft | 418 kts | 277° |
| 2026-05-04 06:03 | 37.62025 | -119.16917 | 26048 ft | 418 kts | 277° |
| 2026-05-04 06:05 | 37.63806 | -119.43066 | 26047 ft | 418 kts | 277° |
| 2026-05-04 06:05 | 37.64311 | -119.50593 | 26048 ft | 418 kts | 277° |
| 2026-05-04 06:05 | 37.64556 | -119.54292 | 26048 ft | 418 kts | 277° |
| 2026-05-04 06:06 | 37.64804 | -119.58055 | 26046 ft | 417 kts | 277° |
| 2026-05-04 06:06 | 37.65048 | -119.61774 | 26044 ft | 417 kts | 277° |
| 2026-05-04 06:06 | 37.65292 | -119.65516 | 26039 ft | 417 kts | 276° |
| 2026-05-04 06:06 | 37.65535 | -119.69257 | 26034 ft | 417 kts | 276° |
| 2026-05-04 06:07 | 37.65766 | -119.72817 | 26030 ft | 416 kts | 276° |
| 2026-05-04 06:07 | 37.66002 | -119.76472 | 26024 ft | 416 kts | 276° |
| 2026-05-04 06:07 | 37.66238 | -119.80157 | 26019 ft | 416 kts | 276° |
| 2026-05-04 06:07 | 37.66476 | -119.83881 | 26013 ft | 416 kts | 276° |
| 2026-05-04 06:08 | 37.66707 | -119.87521 | 26009 ft | 416 kts | 276° |
| 2026-05-04 06:08 | 37.66933 | -119.91110 | 26007 ft | 416 kts | 276° |
| 2026-05-04 06:08 | 37.67165 | -119.94807 | 26003 ft | 416 kts | 276° |
| 2026-05-04 06:08 | 37.67385 | -119.98328 | 26001 ft | 416 kts | 276° |
| 2026-05-04 06:09 | 37.67609 | -120.01943 | 26001 ft | 417 kts | 276° |
| 2026-05-04 06:09 | 37.67835 | -120.05607 | 25999 ft | 416 kts | 276° |
| 2026-05-04 06:11 | 37.69368 | -120.30972 | 25993 ft | 415 kts | 276° |
| 2026-05-04 06:11 | 37.69581 | -120.34567 | 25995 ft | 415 kts | 276° |
| 2026-05-04 06:13 | 37.67624 | -120.60254 | 26002 ft | 417 kts | 263° |
| 2026-05-04 06:14 | 37.65075 | -120.81754 | 23029 ft | 414 kts | 262° |
| 2026-05-04 06:14 | 37.64605 | -120.85647 | 22495 ft | 410 kts | 262° |
| 2026-05-04 06:15 | 37.64167 | -120.89260 | 22101 ft | 404 kts | 262° |
| 2026-05-04 06:15 | 37.63740 | -120.92778 | 22006 ft | 400 kts | 262° |
| 2026-05-04 06:15 | 37.63312 | -120.96294 | 22004 ft | 401 kts | 262° |
| 2026-05-04 06:15 | 37.62877 | -120.99677 | 22003 ft | 401 kts | 262° |
| 2026-05-04 06:16 | 37.62415 | -121.03134 | 22003 ft | 402 kts | 261° |
| 2026-05-04 06:16 | 37.61928 | -121.06760 | 22002 ft | 403 kts | 261° |
| 2026-05-04 06:16 | 37.61449 | -121.10313 | 21921 ft | 399 kts | 261° |
| 2026-05-04 06:16 | 37.60981 | -121.13786 | 21430 ft | 398 kts | 261° |
| 2026-05-04 06:17 | 37.60533 | -121.17111 | 20837 ft | 399 kts | 261° |
| 2026-05-04 06:17 | 37.60193 | -121.19639 | 20519 ft | 396 kts | 261° |
| 2026-05-04 06:18 | 37.58556 | -121.32471 | 18805 ft | 383 kts | 262° |
| 2026-05-04 06:18 | 37.58170 | -121.35918 | 18333 ft | 380 kts | 262° |
| 2026-05-04 06:20 | 37.55518 | -121.58845 | 15288 ft | 352 kts | 262° |
| 2026-05-04 06:20 | 37.55120 | -121.61959 | 14971 ft | 346 kts | 259° |
| 2026-05-04 06:22 | 37.51416 | -121.77869 | 13089 ft | 318 kts | 253° |
| 2026-05-04 06:22 | 37.50724 | -121.80757 | 12749 ft | 312 kts | 253° |
| 2026-05-04 06:25 | 37.51062 | -122.11406 | 7303 ft | 247 kts | 299° |
| 2026-05-04 06:25 | 37.51901 | -122.13312 | 6796 ft | 244 kts | 301° |
| 2026-05-04 06:26 | 37.52748 | -122.15175 | 6289 ft | 242 kts | 301° |
| 2026-05-04 06:26 | 37.53578 | -122.17079 | 5793 ft | 239 kts | 300° |
| 2026-05-04 06:26 | 37.54354 | -122.18927 | 5429 ft | 230 kts | 299° |
| 2026-05-04 06:26 | 37.55096 | -122.20718 | 5086 ft | 222 kts | 299° |
| 2026-05-04 06:27 | 37.57669 | -122.26915 | 4138 ft | 164 kts | 300° |
| 2026-05-04 06:28 | 37.58245 | -122.28248 | 3414 ft | 177 kts | 300° |
| 2026-05-04 06:28 | 37.58870 | -122.29665 | 2631 ft | 188 kts | 300° |
| 2026-05-04 06:28 | 37.59493 | -122.31091 | 1901 ft | 194 kts | 298° |
| 2026-05-04 06:28 | 37.60063 | -122.32529 | 1239 ft | 196 kts | 296° |
| 2026-05-04 06:29 | 37.60654 | -122.34067 | 673 ft | 190 kts | 297° |
| 2026-05-04 06:29 | 37.61274 | -122.35532 | 195 ft | 182 kts | 298° |
| 2026-05-04 06:29 | 37.61803 | -122.36803 | 39 ft | 159 kts | 298° |
| 2026-05-04 06:29 | 37.62186 | -122.37708 | 26 ft | 131 kts | 297° |
| 2026-05-04 06:30 | 37.62468 | -122.38377 | 26 ft | 51 kts | 299° |
| 2026-05-04 06:30 | 37.62500 | -122.38668 | 25 ft | 13 kts | 268° |
| 2026-05-04 06:30 | 37.62498 | -122.38741 | 25 ft | 1 kts | 268° |
| 2026-05-04 06:30 | 37.62498 | -122.38744 | 25 ft | 0 kts | 268° |
| 2026-05-04 06:31 | 37.62497 | -122.38761 | 25 ft | 4 kts | 268° |
| 2026-05-04 06:31 | 37.62481 | -122.38841 | 25 ft | 13 kts | 235° |
| 2026-05-04 06:31 | 37.62393 | -122.38916 | 27 ft | 11 kts | 208° |
| 2026-05-04 06:31 | 37.62349 | -122.38944 | 28 ft | 2 kts | 207° |
| 2026-05-04 06:32 | 37.62344 | -122.38947 | 28 ft | 0 kts | 207° |
| 2026-05-04 06:33 | 37.62091 | -122.38500 | 32 ft | 12 kts | 118° |
| 2026-05-04 06:34 | 37.62048 | -122.38395 | 32 ft | 11 kts | 118° |
| 2026-05-04 06:34 | 37.62009 | -122.38302 | 32 ft | 12 kts | 118° |
| 2026-05-04 06:34 | 37.61970 | -122.38208 | 32 ft | 10 kts | 118° |
| 2026-05-04 06:34 | 37.61947 | -122.38154 | 32 ft | 7 kts | 118° |
| 2026-05-04 06:35 | 37.61923 | -122.38096 | 32 ft | 8 kts | 118° |
| 2026-05-04 06:36 | 37.61446 | -122.38111 | 31 ft | 3 kts | 208° |
| 2026-05-04 06:37 | 37.61442 | -122.38114 | 32 ft | 1 kts | 208° |
| 2026-05-04 06:37 | 37.61431 | -122.38121 | 32 ft | 2 kts | 207° |
| 2026-05-04 06:37 | 37.61385 | -122.38150 | 32 ft | 13 kts | 206° |
| 2026-05-04 06:37 | 37.61263 | -122.38229 | 32 ft | 24 kts | 208° |
| 2026-05-04 06:38 | 37.61135 | -122.38330 | 32 ft | 20 kts | 245° |
| 2026-05-04 06:38 | 37.61156 | -122.38477 | 32 ft | 12 kts | 340° |
| 2026-05-04 06:40 | 37.61270 | -122.38464 | 32 ft | 0 kts | 1° |